Time;durP1;ratioP1;P1;durP2;ratioP2;P2;SDS_P1;SDS_P2;PMS_P1;PMS_P2;Temp;Humidity;BMP_temperature;BMP_pressure;BME280_temperature;BME280_humidity;BME280_pressure;Samples;Min_cycle;Max_cycle;Signal;HPM_P1;HPM_P2
2023/02/26 00:01:39;;;;;;;;;;;;;;;23.79;33.57;93999.91;5022409;28;1686;-70
2023/02/26 00:04:05;;;;;;;;;;;;;;;23.81;33.69;93986.25;5041791;28;1582;-71
2023/02/26 00:06:35;;;;;;;;;;;;;;;23.79;33.56;93993.72;5032800;28;1520;-72
2023/02/26 00:09:01;;;;;;;;;;;;;;;23.75;33.66;93987.25;5030468;28;1532;-72
2023/02/26 00:11:26;;;;;;;;;;;;;;;23.71;33.73;93996.88;5021250;28;1464;-72
2023/02/26 00:13:52;;;;;;;;;;;;;;;23.69;34.03;93982.88;5022892;28;1480;-72
2023/02/26 00:16:28;;;;;;;;;;;;;;;23.68;33.97;93986.59;5048200;28;1211;-72
2023/02/26 00:18:54;;;;;;;;;;;;;;;23.67;33.94;93976.94;5032057;28;1910;-71
2023/02/26 00:21:21;;;;;;;;;;;;;;;23.70;34.03;93973.78;5030602;28;1536;-69
2023/02/26 00:23:47;;;;;;;;;;;;;;;23.80;34.11;93963.22;5031202;28;1874;-69
2023/02/26 00:26:12;;;;;;;;;;;;;;;23.84;34.09;93969.69;5022803;28;1809;-69
2023/02/26 00:28:38;;;;;;;;;;;;;;;23.86;33.99;93959.53;5031407;28;1727;-69
2023/02/26 00:31:03;;;;;;;;;;;;;;;23.88;34.03;93970.81;5031576;28;1609;-69
2023/02/26 00:33:29;;;;;;;;;;;;;;;23.90;34.01;93967.88;5045539;28;1943;-69
2023/02/26 00:36:13;;;;;;;;;;;;;;;23.90;34.05;93967.88;5024354;28;1596;-70
2023/02/26 00:38:39;;;;;;;;;;;;;;;23.90;34.01;93957.16;5031533;28;1969;-69
2023/02/26 00:41:04;;;;;;;;;;;;;;;23.87;34.01;93958.47;5046854;28;1820;-69
2023/02/26 00:43:30;;;;;;;;;;;;;;;23.89;34.10;93947.50;5032096;28;1857;-69
2023/02/26 00:45:55;;;;;;;;;;;;;;;23.91;33.99;93940.03;5032022;28;1611;-68
2023/02/26 00:48:21;;;;;;;;;;;;;;;23.92;34.22;93944.31;5025555;28;1938;-69
2023/02/26 00:50:50;;;;;;;;;;;;;;;23.91;34.28;93940.84;5035351;28;1738;-73
2023/02/26 00:53:19;;;;;;;;;;;;;;;23.81;34.36;93937.25;5035382;28;1251;-72
2023/02/26 00:55:44;;;;;;;;;;;;;;;23.77;34.40;93932.38;5039968;28;1879;-72
2023/02/26 00:58:09;;;;;;;;;;;;;;;23.78;34.67;93927.84;5031381;28;1894;-72
2023/02/26 01:00:35;;;;;;;;;;;;;;;23.76;34.77;93935.31;5042838;28;1511;-72
2023/02/26 01:03:00;;;;;;;;;;;;;;;23.76;34.86;93935.31;5034605;28;2036;-73
2023/02/26 01:05:26;;;;;;;;;;;;;;;23.77;34.91;93932.38;5050621;28;1613;-73
2023/02/26 01:08:10;;;;;;;;;;;;;;;23.72;35.10;93928.84;5033975;28;1537;-72
2023/02/26 01:10:35;;;;;;;;;;;;;;;23.74;34.94;93921.38;5024624;28;1626;-73
2023/02/26 01:13:01;;;;;;;;;;;;;;;23.76;35.10;93916.56;5035634;28;1353;-72
2023/02/26 01:15:26;;;;;;;;;;;;;;;23.72;35.07;93913.59;5034648;28;1813;-72
2023/02/26 01:18:01;;;;;;;;;;;;;;;23.76;35.22;93905.84;5035460;28;1910;-73
2023/02/26 01:20:29;;;;;;;;;;;;;;;23.76;35.06;93903.16;5033731;28;1521;-71
2023/02/26 01:23:21;;;;;;;;;;;;;;;23.77;35.17;93900.25;5024051;28;1422;-71
2023/02/26 01:25:53;;;;;;;;;;;;;;;23.81;35.34;93905.09;5026627;28;1724;-71
2023/02/26 01:28:19;;;;;;;;;;;;;;;23.82;34.96;93899.47;5049047;28;1847;-72
2023/02/26 01:30:44;;;;;;;;;;;;;;;23.80;35.18;93898.94;5034186;28;1668;-71
2023/02/26 01:33:13;;;;;;;;;;;;;;;23.79;35.39;93891.94;5039983;28;1276;-71
2023/02/26 01:35:41;;;;;;;;;;;;;;;23.78;35.42;93880.44;5035260;28;1600;-71
2023/02/26 01:38:13;;;;;;;;;;;;;;;23.75;35.63;93867.56;5035144;28;1894;-71
2023/02/26 01:40:38;;;;;;;;;;;;;;;23.77;35.78;93851.25;5035254;28;1525;-71
2023/02/26 01:43:11;;;;;;;;;;;;;;;23.75;35.54;93861.41;5050664;28;1504;-71
2023/02/26 01:46:03;;;;;;;;;;;;;;;23.76;35.62;93844.25;5025588;28;1524;-71
2023/02/26 01:48:49;;;;;;;;;;;;;;;23.75;35.61;93848.00;5011879;28;1125;-72
2023/02/26 01:51:15;;;;;;;;;;;;;;;23.68;35.66;93853.53;5034690;28;1480;-72
2023/02/26 01:53:40;;;;;;;;;;;;;;;23.69;36.03;93863.19;5033642;28;1540;-71
2023/02/26 01:56:10;;;;;;;;;;;;;;;23.71;35.69;93847.72;5024080;28;1369;-71
2023/02/26 01:58:36;;;;;;;;;;;;;;;23.72;35.85;93851.19;5034371;28;1898;-71
2023/02/26 02:01:02;;;;;;;;;;;;;;;23.71;35.89;93846.91;5034626;28;1593;-71
2023/02/26 02:03:29;;;;;;;;;;;;;;;23.67;35.95;93832.38;5034848;28;1540;-71
2023/02/26 02:06:16;;;;;;;;;;;;;;;23.71;35.94;93844.22;5033336;28;1813;-71
2023/02/26 02:08:41;;;;;;;;;;;;;;;23.73;35.67;93832.19;5016358;28;1803;-71
2023/02/26 02:11:08;;;;;;;;;;;;;;;23.77;35.91;93843.22;5032878;28;1338;-71
2023/02/26 02:13:40;;;;;;;;;;;;;;;23.79;35.91;93833.88;5033689;28;1678;-71
2023/02/26 02:16:15;;;;;;;;;;;;;;;23.80;35.67;93821.28;5033940;28;1603;-71
2023/02/26 02:18:40;;;;;;;;;;;;;;;23.79;36.07;93827.69;5038651;28;1961;-72
2023/02/26 02:21:08;;;;;;;;;;;;;;;23.78;35.89;93832.22;5036803;28;1764;-72
2023/02/26 02:23:36;;;;;;;;;;;;;;;23.75;36.00;93842.66;5033983;28;1582;-72
2023/02/26 02:26:02;;;;;;;;;;;;;;;23.71;36.18;93841.56;5033566;28;1853;-72
2023/02/26 02:28:36;;;;;;;;;;;;;;;23.73;36.22;93829.50;5033103;28;1590;-72
2023/02/26 02:31:14;;;;;;;;;;;;;;;23.70;36.17;93832.69;5015915;28;1461;-72
2023/02/26 02:33:46;;;;;;;;;;;;;;;23.74;36.00;93828.47;5030527;28;1819;-71
2023/02/26 02:36:30;;;;;;;;;;;;;;;23.74;36.04;93836.50;5047830;28;1628;-72
2023/02/26 02:38:58;;;;;;;;;;;;;;;23.72;36.32;93843.16;5016525;28;1953;-72
2023/02/26 02:41:27;;;;;;;;;;;;;;;23.75;36.26;93831.94;5023053;28;1405;-71
2023/02/26 02:43:54;;;;;;;;;;;;;;;23.76;36.32;93822.84;5032860;28;1946;-72
2023/02/26 02:46:25;;;;;;;;;;;;;;;23.79;36.16;93835.72;5032359;28;1859;-71
2023/02/26 02:48:59;;;;;;;;;;;;;;;23.76;36.46;93855.81;5033156;28;1704;-72
2023/02/26 02:51:28;;;;;;;;;;;;;;;23.75;36.25;93856.84;5033051;28;1830;-72
2023/02/26 02:54:00;;;;;;;;;;;;;;;23.75;36.32;93869.44;5025036;28;1319;-72
2023/02/26 02:56:33;;;;;;;;;;;;;;;23.74;36.30;93847.22;5033812;28;1534;-72
2023/02/26 02:59:05;;;;;;;;;;;;;;;23.76;36.34;93841.59;5039721;28;1963;-72
2023/02/26 03:01:33;;;;;;;;;;;;;;;23.75;36.39;93848.81;5036059;28;1739;-71
2023/02/26 03:04:04;;;;;;;;;;;;;;;23.76;36.23;93871.03;5022205;28;1771;-71
2023/02/26 03:06:29;;;;;;;;;;;;;;;23.77;36.57;93856.59;5047536;28;1820;-71
2023/02/26 03:08:55;;;;;;;;;;;;;;;23.74;36.63;93847.22;5032007;28;1676;-72
2023/02/26 03:11:20;;;;;;;;;;;;;;;23.81;36.59;93855.03;5033126;28;1794;-71
2023/02/26 03:13:47;;;;;;;;;;;;;;;23.84;36.49;93845.69;5032558;28;1580;-71
2023/02/26 03:16:18;;;;;;;;;;;;;;;23.80;36.63;93850.75;5021508;28;1342;-72
2023/02/26 03:18:47;;;;;;;;;;;;;;;23.81;36.65;93844.31;5047649;28;1910;-72
2023/02/26 03:21:31;;;;;;;;;;;;;;;23.83;36.51;93846.75;5047706;28;1564;-72
2023/02/26 03:24:05;;;;;;;;;;;;;;;23.78;36.80;93842.16;5032615;28;1684;-71
2023/02/26 03:26:36;;;;;;;;;;;;;;;23.76;36.58;93842.41;5022181;28;1825;-71
2023/02/26 03:29:09;;;;;;;;;;;;;;;23.77;36.82;93843.22;5022731;28;1789;-70
2023/02/26 03:31:46;;;;;;;;;;;;;;;23.80;36.83;93834.69;5047638;28;1827;-71
2023/02/26 03:34:35;;;;;;;;;;;;;;;23.79;36.73;93838.41;5030974;28;1359;-70
2023/02/26 03:37:27;;;;;;;;;;;;;;;23.81;37.05;93844.31;5021347;28;1622;-71
2023/02/26 03:39:54;;;;;;;;;;;;;;;23.82;36.85;93829.03;5025149;28;1669;-70
2023/02/26 03:42:24;;;;;;;;;;;;;;;23.80;36.90;93829.31;5033242;28;1415;-70
2023/02/26 03:44:52;;;;;;;;;;;;;;;23.83;36.80;93839.53;5047733;28;1437;-72
2023/02/26 03:47:17;;;;;;;;;;;;;;;23.83;36.74;93846.75;5033166;28;1416;-71
2023/02/26 03:49:43;;;;;;;;;;;;;;;23.81;36.99;93827.44;5004127;28;1249;-71
2023/02/26 03:52:08;;;;;;;;;;;;;;;23.80;37.08;93829.31;5044125;28;1450;-71
2023/02/26 03:54:36;;;;;;;;;;;;;;;23.79;36.74;93839.22;5032903;28;1267;-72
2023/02/26 03:57:01;;;;;;;;;;;;;;;23.81;36.95;93833.59;5048041;28;1330;-72
2023/02/26 03:59:27;;;;;;;;;;;;;;;23.81;37.03;93832.78;5047741;28;1903;-72
2023/02/26 04:01:58;;;;;;;;;;;;;;;23.83;36.92;93833.34;5023207;28;1534;-71
2023/02/26 04:04:30;;;;;;;;;;;;;;;23.81;37.25;93833.59;5048056;28;1305;-72
2023/02/26 04:06:55;;;;;;;;;;;;;;;23.80;37.13;93815.94;5047101;28;1669;-72
2023/02/26 04:09:21;;;;;;;;;;;;;;;23.78;37.21;93816.16;5029566;28;1434;-72
2023/02/26 04:11:48;;;;;;;;;;;;;;;23.81;37.17;93808.69;5018340;28;1814;-70
2023/02/26 04:14:13;;;;;;;;;;;;;;;23.82;37.24;93803.06;5045924;28;1492;-71
2023/02/26 04:16:38;;;;;;;;;;;;;;;23.83;37.26;93818.09;5031235;28;1586;-71
2023/02/26 04:19:03;;;;;;;;;;;;;;;23.83;37.37;93825.31;5029651;28;1906;-71
2023/02/26 04:21:29;;;;;;;;;;;;;;;23.85;37.32;93807.09;5034457;28;1338;-71
2023/02/26 04:23:54;;;;;;;;;;;;;;;23.81;37.56;93801.47;5024887;28;1781;-71
2023/02/26 04:26:19;;;;;;;;;;;;;;;23.82;37.32;93800.38;5036109;28;1750;-71
2023/02/26 04:28:45;;;;;;;;;;;;;;;23.81;37.41;93798.78;5050543;28;1710;-71
2023/02/26 04:31:10;;;;;;;;;;;;;;;23.83;37.41;93795.88;5034185;28;1842;-71
2023/02/26 04:33:35;;;;;;;;;;;;;;;23.83;37.45;93796.66;5031526;28;1867;-71
2023/02/26 04:36:01;;;;;;;;;;;;;;;23.83;37.12;93791.31;5020386;28;1957;-71
2023/02/26 04:38:26;;;;;;;;;;;;;;;23.85;37.20;93770.44;5033806;28;1967;-71
2023/02/26 04:40:51;;;;;;;;;;;;;;;23.82;37.39;93778.97;5034780;28;1632;-71
2023/02/26 04:43:17;;;;;;;;;;;;;;;23.80;37.54;93767.72;5035727;28;1249;-71
2023/02/26 04:45:46;;;;;;;;;;;;;;;23.82;37.51;93784.31;5030468;28;1773;-71
2023/02/26 04:48:11;;;;;;;;;;;;;;;23.81;37.33;93782.72;5018807;28;1767;-71
2023/02/26 04:50:37;;;;;;;;;;;;;;;23.81;37.48;93780.03;5034244;28;1475;-70
2023/02/26 04:53:02;;;;;;;;;;;;;;;23.83;37.49;93779.81;5034921;28;1845;-70
2023/02/26 04:55:27;;;;;;;;;;;;;;;23.81;37.55;93763.16;5034967;28;1337;-71
2023/02/26 04:57:53;;;;;;;;;;;;;;;23.81;37.74;93739.06;5024790;28;1958;-71
2023/02/26 05:00:19;;;;;;;;;;;;;;;23.79;37.40;93758.88;5032498;28;1833;-71
2023/02/26 05:02:44;;;;;;;;;;;;;;;23.81;37.63;93780.03;5033752;28;1638;-70
2023/02/26 05:05:09;;;;;;;;;;;;;;;23.90;37.53;93767.78;5034629;28;1614;-71
2023/02/26 05:07:35;;;;;;;;;;;;;;;23.96;37.38;93772.16;5035498;28;1719;-71
2023/02/26 05:10:00;;;;;;;;;;;;;;;23.99;37.49;93763.59;5024668;28;1797;-71
2023/02/26 05:12:25;;;;;;;;;;;;;;;23.90;37.60;93773.16;5033596;28;1675;-72
2023/02/26 05:14:51;;;;;;;;;;;;;;;23.96;37.39;93731.97;5034432;28;2152;-72
2023/02/26 05:17:16;;;;;;;;;;;;;;;23.95;37.50;93741.03;5047966;28;1374;-72
2023/02/26 05:19:41;;;;;;;;;;;;;;;23.94;37.46;93747.47;5030211;28;1918;-72
2023/02/26 05:22:06;;;;;;;;;;;;;;;23.91;37.64;93771.28;5045053;28;1409;-71
2023/02/26 05:24:32;;;;;;;;;;;;;;;23.88;37.83;93747.69;5033224;28;1685;-71
2023/02/26 05:26:57;;;;;;;;;;;;;;;23.90;37.68;93749.03;5034168;28;1813;-72
2023/02/26 05:29:22;;;;;;;;;;;;;;;23.90;37.78;93754.41;5035430;28;1734;-72
2023/02/26 05:31:48;;;;;;;;;;;;;;;23.89;37.50;93768.88;5019408;28;1292;-71
2023/02/26 05:34:13;;;;;;;;;;;;;;;23.89;37.78;93763.50;5035205;28;1487;-71
2023/02/26 05:36:38;;;;;;;;;;;;;;;23.91;37.74;93766.75;5035181;28;1419;-71
2023/02/26 05:39:03;;;;;;;;;;;;;;;23.90;37.58;93769.66;5035397;28;1906;-72
2023/02/26 05:41:29;;;;;;;;;;;;;;;23.88;37.79;93761.06;5035014;28;1548;-72
2023/02/26 05:43:54;;;;;;;;;;;;;;;23.86;37.94;93753.31;5025473;28;1348;-72
2023/02/26 05:46:19;;;;;;;;;;;;;;;23.92;37.56;93763.00;5050241;28;1528;-71
2023/02/26 05:48:45;;;;;;;;;;;;;;;23.90;38.07;93754.41;5049938;28;1559;-71
2023/02/26 05:51:10;;;;;;;;;;;;;;;23.92;37.82;93760.31;5035123;28;1539;-71
2023/02/26 05:53:35;;;;;;;;;;;;;;;23.90;37.98;93751.72;5030266;28;1285;-72
2023/02/26 05:56:00;;;;;;;;;;;;;;;23.92;37.92;93751.47;5030066;28;1462;-72
2023/02/26 05:58:26;;;;;;;;;;;;;;;23.96;38.00;93764.09;5033979;28;1918;-72
2023/02/26 06:00:51;;;;;;;;;;;;;;;23.92;37.84;93760.31;5034194;28;1761;-72
2023/02/26 06:03:17;;;;;;;;;;;;;;;23.87;37.97;93762.94;5049822;28;1589;-72
2023/02/26 06:05:42;;;;;;;;;;;;;;;23.92;37.75;93752.28;5039328;28;1743;-72
2023/02/26 06:08:07;;;;;;;;;;;;;;;23.94;38.08;93768.91;5031757;28;1674;-71
2023/02/26 06:10:33;;;;;;;;;;;;;;;23.94;37.59;93752.84;5034388;28;1284;-71
2023/02/26 06:12:58;;;;;;;;;;;;;;;23.94;37.79;93763.53;5031785;28;1801;-71
2023/02/26 06:15:23;;;;;;;;;;;;;;;23.93;37.90;93764.59;5031862;28;1788;-71
2023/02/26 06:17:49;;;;;;;;;;;;;;;23.95;37.75;93781.22;5037560;28;1985;-72
2023/02/26 06:20:14;;;;;;;;;;;;;;;23.96;37.93;93769.47;5034690;28;1381;-72
2023/02/26 06:22:39;;;;;;;;;;;;;;;23.95;37.86;93767.84;5047689;28;1860;-72
2023/02/26 06:25:05;;;;;;;;;;;;;;;23.98;37.64;93777.22;5032008;28;1599;-71
2023/02/26 06:27:30;;;;;;;;;;;;;;;23.97;37.44;93765.72;5026602;28;1701;-72
2023/02/26 06:29:56;;;;;;;;;;;;;;;23.99;37.75;93792.22;5024788;28;1790;-71
2023/02/26 06:32:21;;;;;;;;;;;;;;;23.98;37.74;93775.34;5030070;28;1839;-71
2023/02/26 06:34:46;;;;;;;;;;;;;;;24.00;37.74;93781.28;5029378;28;1398;-71
2023/02/26 06:37:12;;;;;;;;;;;;;;;24.04;37.73;93775.41;5028089;28;1931;-72
2023/02/26 06:39:37;;;;;;;;;;;;;;;24.02;37.77;93772.97;5036784;28;1910;-72
2023/02/26 06:42:03;;;;;;;;;;;;;;;24.01;37.70;93790.09;5047909;28;1374;-70
2023/02/26 06:44:29;;;;;;;;;;;;;;;23.93;31.29;93775.31;5032378;28;1960;-71
2023/02/26 06:46:54;;;;;;;;;;;;;;;23.17;28.30;93798.66;5031320;28;1844;-71
2023/02/26 06:49:19;;;;;;;;;;;;;;;22.63;26.77;93804.69;5033433;28;1319;-70
2023/02/26 06:51:45;;;;;;;;;;;;;;;22.34;26.85;93798.66;5022372;28;2004;-70
2023/02/26 06:54:10;;;;;;;;;;;;;;;22.13;26.07;93779.66;5031036;28;1615;-70
2023/02/26 06:56:35;;;;;;;;;;;;;;;22.07;27.13;93796.66;5045664;28;1836;-70
2023/02/26 06:59:01;;;;;;;;;;;;;;;22.06;26.08;93800.41;5048062;28;1949;-68
2023/02/26 07:01:26;;;;;;;;;;;;;;;22.09;25.21;93788.41;5046249;28;1694;-69
2023/02/26 07:03:51;;;;;;;;;;;;;;;22.05;25.83;93792.63;5024445;28;1937;-70
2023/02/26 07:06:17;;;;;;;;;;;;;;;22.08;25.11;93776.09;5033002;28;1435;-71
2023/02/26 07:08:42;;;;;;;;;;;;;;;22.01;24.47;93787.75;5033455;28;1216;-71
2023/02/26 07:11:08;;;;;;;;;;;;;;;22.02;24.26;93762.66;5033075;28;1374;-71
2023/02/26 07:13:35;;;;;;;;;;;;;;;22.08;24.33;93750.19;5024648;28;1887;-71
2023/02/26 07:16:00;;;;;;;;;;;;;;;22.15;24.24;93779.41;5046440;28;2031;-71
2023/02/26 07:18:26;;;;;;;;;;;;;;;22.04;22.80;93775.78;5047082;28;1973;-71
2023/02/26 07:20:51;;;;;;;;;;;;;;;22.29;23.71;93778.06;5032264;28;1796;-70
2023/02/26 07:23:16;;;;;;;;;;;;;;;22.21;23.88;93736.53;5032471;28;1806;-71
2023/02/26 07:25:42;;;;;;;;;;;;;;;22.17;23.20;93754.13;5023275;28;1524;-71
2023/02/26 07:28:07;;;;;;;;;;;;;;;22.23;23.14;93758.47;5048316;28;1535;-71
2023/02/26 07:30:32;;;;;;;;;;;;;;;22.29;22.30;93803.97;5032650;28;1322;-70
2023/02/26 07:32:58;;;;;;;;;;;;;;;22.34;22.71;93788.81;5032383;28;1614;-71
2023/02/26 07:35:23;;;;;;;;;;;;;;;22.35;22.35;93813.66;5031516;28;1242;-71
2023/02/26 07:37:48;;;;;;;;;;;;;;;22.33;22.94;93740.97;5023678;28;1968;-70
2023/02/26 07:40:14;;;;;;;;;;;;;;;22.47;22.64;93766.25;5033350;28;1552;-71
2023/02/26 07:42:39;;;;;;;;;;;;;;;22.43;22.16;93781.19;5048501;28;1280;-70
2023/02/26 07:45:06;;;;;;;;;;;;;;;22.43;22.09;93810.56;5047965;28;1586;-70
2023/02/26 07:47:32;;;;;;;;;;;;;;;22.47;22.23;93718.16;5042268;28;1522;-71
2023/02/26 07:49:57;;;;;;;;;;;;;;;;;;5044119;28;1475;-71
2023/02/26 07:52:22;;;;;;;;;;;;;;;22.53;21.91;93785.84;5032867;28;1505;-70
2023/02/26 07:54:48;;;;;;;;;;;;;;;22.52;21.65;93760.19;5031888;28;1786;-70
2023/02/26 07:57:13;;;;;;;;;;;;;;;22.64;21.84;93822.34;5046970;28;1699;-71
2023/02/26 07:59:38;;;;;;;;;;;;;;;22.47;20.74;93720.84;5020954;28;1969;-71
2023/02/26 08:02:04;;;;;;;;;;;;;;;22.52;21.32;93779.69;5047520;28;1858;-70
2023/02/26 08:04:31;;;;;;;;;;;;;;;22.46;20.91;93767.31;5030339;28;1710;-71
2023/02/26 08:06:57;;;;;;;;;;;;;;;22.57;21.77;93770.91;5032401;28;1576;-71
2023/02/26 08:09:22;;;;;;;;;;;;;;;22.02;21.39;93768.00;5030360;28;1802;-68
2023/02/26 08:11:48;;;;;;;;;;;;;;;22.29;21.13;93771.91;5020300;28;1580;-69
2023/02/26 08:14:13;;;;;;;;;;;;;;;22.13;20.89;93789.53;5031788;28;1774;-73
2023/02/26 08:16:39;;;;;;;;;;;;;;;22.00;21.45;93796.03;5046973;28;1773;-76
2023/02/26 08:19:04;;;;;;;;;;;;;;;22.06;23.25;93779.03;5030650;28;1970;-71
2023/02/26 08:21:29;;;;;;;;;;;;;;;22.21;20.49;93765.13;5025411;28;1927;-71
2023/02/26 08:23:55;;;;;;;;;;;;;;;22.12;21.02;93799.41;5027586;28;1844;-74
2023/02/26 08:26:20;;;;;;;;;;;;;;;22.38;21.40;93781.09;5030091;28;1770;-71
2023/02/26 08:28:47;;;;;;;;;;;;;;;22.38;21.23;93783.78;5030642;28;2216;-74
2023/02/26 08:31:13;;;;;;;;;;;;;;;22.71;21.86;93798.09;5046651;28;1464;-74
2023/02/26 08:33:38;;;;;;;;;;;;;;;22.86;23.60;93809.00;5019164;28;1829;-72
2023/02/26 08:36:04;;;;;;;;;;;;;;;23.12;23.54;93794.88;5031612;28;1771;-70
2023/02/26 08:38:29;;;;;;;;;;;;;;;21.89;22.40;93773.69;5031770;28;1906;-73
2023/02/26 08:40:55;;;;;;;;;;;;;;;22.34;22.63;93828.06;5031478;28;1707;-71
2023/02/26 08:43:20;;;;;;;;;;;;;;;22.42;21.77;93792.91;5028879;28;1817;-70
2023/02/26 08:45:46;;;;;;;;;;;;;;;22.54;22.06;93796.31;5020454;28;1843;-71
2023/02/26 08:48:11;;;;;;;;;;;;;;;22.55;22.09;93771.19;5030258;28;1880;-71
2023/02/26 08:50:37;;;;;;;;;;;;;;;;;;5030443;28;1666;-72
2023/02/26 08:53:02;;;;;;;;;;;;;;;22.52;21.63;93765.53;5031010;28;1823;-71
2023/02/26 08:55:28;;;;;;;;;;;;;;;22.63;22.24;93780.66;5027243;28;1452;-71
2023/02/26 08:57:53;;;;;;;;;;;;;;;22.61;21.49;93780.88;5041410;28;2024;-71
2023/02/26 09:00:19;;;;;;;;;;;;;;;22.41;21.60;93797.44;5030573;28;1467;-71
2023/02/26 09:02:44;;;;;;;;;;;;;;;22.51;21.50;93790.63;5031010;28;1569;-70
2023/02/26 09:05:10;;;;;;;;;;;;;;;22.49;21.78;93814.13;5032126;28;1863;-74
2023/02/26 09:07:36;;;;;;;;;;;;;;;22.60;23.22;93797.19;5023009;28;1781;-72
2023/02/26 09:10:02;;;;;;;;;;;;;;;22.62;22.89;93776.34;5032729;28;1725;-71
2023/02/26 09:12:27;;;;;;;;;;;;;;;22.53;21.46;93785.84;5035066;28;1407;-70
2023/02/26 09:14:52;;;;;;;;;;;;;;;22.58;22.01;93794.75;5034411;28;1719;-68
2023/02/26 09:17:18;;;;;;;;;;;;;;;22.63;22.69;93788.66;5030516;28;1714;-69
2023/02/26 09:19:43;;;;;;;;;;;;;;;22.66;22.58;93810.34;5022229;28;1977;-69
2023/02/26 09:22:08;;;;;;;;;;;;;;;22.65;22.24;93789.19;5033717;28;1731;-70
2023/02/26 09:24:34;;;;;;;;;;;;;;;22.65;22.57;93759.78;5034848;28;1862;-70
2023/02/26 09:27:02;;;;;;;;;;;;;;;22.71;22.65;93790.06;5034042;28;1898;-70
2023/02/26 09:29:27;;;;;;;;;;;;;;;22.75;22.85;93754.59;5030844;28;1299;-71
2023/02/26 09:31:52;;;;;;;;;;;;;;;22.78;22.84;93756.75;5029758;28;1402;-70
2023/02/26 09:34:19;;;;;;;;;;;;;;;22.79;22.63;93797.66;5049838;28;1392;-70
2023/02/26 09:36:45;;;;;;;;;;;;;;;22.79;23.23;93792.31;5035158;28;1165;-71
2023/02/26 09:39:11;;;;;;;;;;;;;;;22.82;22.67;93797.16;5033823;28;1968;-71
2023/02/26 09:41:41;;;;;;;;;;;;;;;22.83;23.17;93814.84;5025170;28;1564;-70
2023/02/26 09:44:19;;;;;;;;;;;;;;;22.83;22.24;93810.31;5043619;28;1719;-70
2023/02/26 09:46:55;;;;;;;;;;;;;;;22.85;22.38;93804.69;5050348;28;1203;-69
2023/02/26 09:49:24;;;;;;;;;;;;;;;22.80;21.99;93837.53;5024271;28;1326;-70
2023/02/26 09:51:52;;;;;;;;;;;;;;;22.83;22.38;93801.47;5030020;28;1312;-67
2023/02/26 09:54:22;;;;;;;;;;;;;;;22.85;22.95;93804.69;5025365;28;1314;-70
2023/02/26 09:56:48;;;;;;;;;;;;;;;22.89;22.81;93789.78;5034850;28;1424;-71
2023/02/26 09:59:14;;;;;;;;;;;;;;;22.92;22.99;93807.19;5033375;28;1898;-69
2023/02/26 10:01:45;;;;;;;;;;;;;;;22.89;22.47;93736.28;5034825;28;1668;-70
2023/02/26 10:04:40;;;;;;;;;;;;;;;22.92;22.65;93781.25;5024367;28;1432;-69
2023/02/26 10:07:05;;;;;;;;;;;;;;;22.96;22.85;93798.44;5034640;28;1458;-70
2023/02/26 10:09:43;;;;;;;;;;;;;;;22.97;23.11;93813.44;5034525;28;1524;-69
2023/02/26 10:12:09;;;;;;;;;;;;;;;22.99;23.05;93791.78;5034387;28;1322;-69
2023/02/26 10:14:38;;;;;;;;;;;;;;;22.97;23.07;93805.41;5031464;28;1414;-69
2023/02/26 10:17:24;;;;;;;;;;;;;;;22.93;22.60;93782.84;5020013;28;1310;-70
2023/02/26 10:19:53;;;;;;;;;;;;;;;22.92;22.64;93780.44;5033066;28;1910;-70
2023/02/26 10:22:37;;;;;;;;;;;;;;;22.91;22.68;93798.38;5031795;28;1834;-70
2023/02/26 10:25:03;;;;;;;;;;;;;;;22.89;22.68;93763.84;5030711;28;1607;-70
2023/02/26 10:27:46;;;;;;;;;;;;;;;22.89;22.96;93782.56;5022000;28;1384;-70
2023/02/26 10:30:20;;;;;;;;;;;;;;;22.88;23.33;93796.16;5031484;28;1802;-69
2023/02/26 10:32:56;;;;;;;;;;;;;;;22.83;22.89;93778.22;5031681;28;1743;-70
2023/02/26 10:37:58;;;;;;;;;;;;;;;22.82;22.89;93760.53;5846679;23;1899;-71
2023/02/26 10:40:31;;;;;;;;;;;;;;;22.81;23.31;93739.41;5016916;28;1554;-70
2023/02/26 10:43:15;;;;;;;;;;;;;;;22.78;23.42;93745.25;5013367;28;1349;-67
2023/02/26 10:46:00;;;;;;;;;;;;;;;22.67;23.40;93747.81;5021135;28;1262;-67
2023/02/26 10:48:28;;;;;;;;;;;;;;;22.68;24.21;93729.88;5018904;28;1688;-67
2023/02/26 10:50:58;;;;;;;;;;;;;;;22.75;24.21;93732.41;5007094;28;1381;-67
2023/02/26 10:53:33;;;;;;;;;;;;;;;22.75;24.68;93732.41;5014638;28;1424;-66
2023/02/26 10:56:10;;;;;;;;;;;;;;;22.78;24.94;93748.72;5031263;28;1354;-66
2023/02/26 10:58:36;;;;;;;;;;;;;;;22.80;24.84;93756.53;5017117;28;1975;-67
2023/02/26 11:01:01;;;;;;;;;;;;;;;22.71;24.08;93758.00;5011264;28;1429;-66
2023/02/26 11:03:26;;;;;;;;;;;;;;;22.62;24.98;93742.38;5028493;28;1429;-65
2023/02/26 11:05:52;;;;;;;;;;;;;;;22.63;24.31;93752.03;5016971;28;1215;-66
2023/02/26 11:08:29;;;;;;;;;;;;;;;22.68;25.07;93749.44;5020569;28;1162;-66
2023/02/26 11:10:56;;;;;;;;;;;;;;;22.67;25.19;93753.16;5013624;28;873;-66
2023/02/26 11:13:22;;;;;;;;;;;;;;;22.56;23.35;93732.69;5002974;28;1080;-66
2023/02/26 11:15:50;;;;;;;;;;;;;;;22.62;23.36;93745.06;5012198;28;1139;-66
2023/02/26 11:18:19;;;;;;;;;;;;;;;22.62;24.35;93734.38;5014784;28;1898;-66
2023/02/26 11:20:45;;;;;;;;;;;;;;;22.63;24.54;93741.34;5012842;28;1421;-66
2023/02/26 11:23:12;;;;;;;;;;;;;;;22.43;24.34;93730.41;5016532;28;1484;-66
2023/02/26 11:25:38;;;;;;;;;;;;;;;22.37;22.31;93742.91;5008365;28;1124;-66
2023/02/26 11:28:05;;;;;;;;;;;;;;;22.35;22.53;93706.78;5013118;28;1394;-66
2023/02/26 11:30:34;;;;;;;;;;;;;;;22.40;22.21;93721.03;5012919;28;1131;-66
2023/02/26 11:33:03;;;;;;;;;;;;;;;22.26;22.15;93735.00;5016179;28;1473;-66
2023/02/26 11:35:29;;;;;;;;;;;;;;;22.38;22.91;93749.84;5002938;28;1282;-66
2023/02/26 11:37:58;;;;;;;;;;;;;;;22.39;23.10;93750.66;5017245;28;1971;-66
2023/02/26 11:40:36;;;;;;;;;;;;;;;22.40;22.31;93749.63;5031799;28;1413;-68
2023/02/26 11:43:04;;;;;;;;;;;;;;;22.35;22.27;93755.69;5032175;28;1520;-68
2023/02/26 11:45:29;;;;;;;;;;;;;;;22.41;22.51;93745.88;5029676;28;1099;-68
2023/02/26 11:47:58;;;;;;;;;;;;;;;22.42;23.96;93750.97;5024467;28;1338;-65
2023/02/26 11:50:24;;;;;;;;;;;;;;;22.48;24.40;93753.69;5031176;28;1233;-65
2023/02/26 11:53:02;;;;;;;;;;;;;;;22.52;23.53;93766.34;5026634;28;1157;-68
2023/02/26 11:55:31;;;;;;;;;;;;;;;22.53;23.06;93767.13;5031326;28;1336;-66
2023/02/26 11:57:56;;;;;;;;;;;;;;;22.49;23.84;93790.88;5021529;28;1950;-66
2023/02/26 12:00:35;;;;;;;;;;;;;;;22.45;22.24;93790.56;5032099;28;1492;-66
2023/02/26 12:03:06;;;;;;;;;;;;;;;22.49;23.56;93796.22;5031572;28;1326;-65
2023/02/26 12:05:32;;;;;;;;;;;;;;;22.55;23.61;93794.44;5031468;28;1250;-67
2023/02/26 12:07:57;;;;;;;;;;;;;;;22.51;22.05;93796.75;5031472;28;1420;-66
2023/02/26 12:10:33;;;;;;;;;;;;;;;22.45;21.86;93808.44;5022277;28;1458;-66
2023/02/26 12:13:11;;;;;;;;;;;;;;;22.34;21.87;93791.50;5027081;28;1409;-66
2023/02/26 12:15:55;;;;;;;;;;;;;;;22.45;22.31;93782.56;5030639;28;1273;-66
2023/02/26 12:18:23;;;;;;;;;;;;;;;22.46;22.54;93794.06;5031751;28;2001;-65
2023/02/26 12:20:49;;;;;;;;;;;;;;;22.41;22.08;93785.97;5022254;28;1643;-66
2023/02/26 12:23:17;;;;;;;;;;;;;;;22.47;22.40;93790.31;5030125;28;1202;-66
2023/02/26 12:25:51;;;;;;;;;;;;;;;22.49;22.29;93782.06;5030934;28;1241;-65
2023/02/26 12:28:42;;;;;;;;;;;;;;;22.46;23.21;93810.09;5031237;28;1489;-65
2023/02/26 12:31:14;;;;;;;;;;;;;;;22.50;23.55;93783.66;5021062;28;1485;-67
2023/02/26 12:33:45;;;;;;;;;;;;;;;22.51;23.68;93786.06;5025601;28;1468;-67
2023/02/26 12:36:29;;;;;;;;;;;;;;;22.48;23.38;93807.94;5031520;28;1479;-67
2023/02/26 12:39:13;;;;;;;;;;;;;;;22.46;22.90;93799.41;5031844;28;1981;-67
2023/02/26 12:41:57;;;;;;;;;;;;;;;22.42;23.18;93812.41;5032191;28;1464;-67
2023/02/26 12:44:33;;;;;;;;;;;;;;;22.47;23.77;93808.22;5024714;28;1155;-67
2023/02/26 12:47:22;;;;;;;;;;;;;;;22.51;24.11;93802.13;5035773;28;1547;-67
2023/02/26 12:50:07;;;;;;;;;;;;;;;22.54;23.73;93815.00;5022197;28;1293;-67
2023/02/26 12:52:32;;;;;;;;;;;;;;;22.54;24.13;93815.00;5034299;28;1274;-67
2023/02/26 12:55:06;;;;;;;;;;;;;;;22.53;24.43;93824.06;5024988;28;1491;-67
2023/02/26 12:57:37;;;;;;;;;;;;;;;22.54;24.41;93817.69;5033258;28;1209;-67
2023/02/26 13:00:12;;;;;;;;;;;;;;;22.58;24.15;93812.66;5035145;28;1918;-67
2023/02/26 13:02:37;;;;;;;;;;;;;;;;;;5051047;28;1421;-67
2023/02/26 13:05:02;;;;;;;;;;;;;;;22.55;24.36;93803.25;5030204;28;1158;-66
2023/02/26 13:07:41;;;;;;;;;;;;;;;22.59;24.14;93812.38;5025564;28;1268;-66